Terminal Aerodrome Forecast
Issued by NWS

Current Version | Previous Version | Text Only | Print | Product List | Glossary On
Versions: 1 2 3 4 5 6 7 8 9 10 11 12 13 14 15 16 17
470
FTUS41 KBGM 182325
TAFELM
TAF
KELM 182325Z 1900/1924 26003KT P6SM SCT100
     FM190600 VRB03KT 3SM BR BKN012
      TEMPO 1908/1912 1/2SM FG VV005
     FM191400 27008KT P6SM BKN050=

USA.gov is the U.S. government's official web portal to all federal, state and local government web resources and services.